Thunder radar more information blitzortung!


Radar de pluja more information rain snow radar


Visita la nostra xarxa de llocs de meteo:

Template documentation
and downloads

And another site



No particular awareness of the weather is required.    There are no Weather-warnings

Pagina Historial Weather Underground text

Diari Resum Agost 20, 2017 Unitats:  Tant    Imperial   Mètric
« Previous Dia
SegĂźent Dia »
Diari Setmana Mensual Anual Personalitzada
  Maxima: Minima: Media:
Temperatura: 87.4 °F /  30.8 °C 69.1 °F /  20.6 °C 76.5 °F /  24.7 °C
Punt de rosada: 67.1 °F /  19.5 °C 59.7 °F /  15.4 °C 63.9 °F /  17.7 °C
Humitat: 85 % 43 % 67 %
Wind Speed: 13.8 mph /  22.2 km/h - 3.4 mph /  5.4 km/h
RĂ fegues de vent: 13.8 mph /  22.2 km/h - -
Vent:- - SSW
Pression baro: 30.1 in /  1019.9 hPa 30 in /  1016.8 hPa -
Precipitacions: 0 in /  0.0 mm    
Historical Graphs
 
 
Dades de taula per Agost 20, 2017
Temps Temperatura Punt de rosada Pression baro Vent Wind Speed RĂ fegues de vent Humitat Rainfall Rate (Hourly)
00:03 73.2 °F /  22.9 °C 64 °F /  17.8 °C 30.1 in /  1018.8 hPa SW 2.3 mph /  3.7 km/h 2.3 mph /  3.7 km/h 73 % 0 in /  0.0 mm
00:08 73.2 °F /  22.9 °C 64 °F /  17.8 °C 30.1 in /  1018.8 hPa SW 2.3 mph /  3.7 km/h 2.3 mph /  3.7 km/h 73 % 0 in /  0.0 mm
00:13 73.2 °F /  22.9 °C 64 °F /  17.8 °C 30.1 in /  1017.8 hPa WSW 2.6 mph /  4.2 km/h 2.6 mph /  4.2 km/h 73 % 0 in /  0.0 mm
00:18 73.2 °F /  22.9 °C 64 °F /  17.8 °C 30.1 in /  1017.8 hPa WSW 1.4 mph /  2.3 km/h 1.4 mph /  2.3 km/h 73 % 0 in /  0.0 mm
00:23 73.2 °F /  22.9 °C 64 °F /  17.8 °C 30.1 in /  1017.8 hPa SW 2.4 mph /  3.9 km/h   73 % 0 in /  0.0 mm
00:28 73.2 °F /  22.9 °C 64 °F /  17.8 °C 30.1 in /  1018.8 hPa West 2.3 mph /  3.7 km/h 2.3 mph /  3.7 km/h 73 % 0 in /  0.0 mm
00:33 73.2 °F /  22.9 °C 64 °F /  17.8 °C 30.1 in /  1018.8 hPa SW 2.3 mph /  3.7 km/h 2.3 mph /  3.7 km/h 73 % 0 in /  0.0 mm
00:38 73.2 °F /  22.9 °C 64.4 °F /  18.0 °C 30.1 in /  1018.8 hPa SW 1.2 mph /  1.9 km/h 1.2 mph /  1.9 km/h 74 % 0 in /  0.0 mm
00:43 73.2 °F /  22.9 °C 64.4 °F /  18.0 °C 30.1 in /  1017.8 hPa SW 2.3 mph /  3.7 km/h 2.3 mph /  3.7 km/h 74 % 0 in /  0.0 mm
00:49 73.2 °F /  22.9 °C 64 °F /  17.8 °C 30.1 in /  1017.8 hPa WSW 2.3 mph /  3.7 km/h 2.3 mph /  3.7 km/h 73 % 0 in /  0.0 mm
00:53 73.2 °F /  22.9 °C 64.4 °F /  18.0 °C 30.1 in /  1017.8 hPa SW 1.2 mph /  1.9 km/h 1.2 mph /  1.9 km/h 74 % 0 in /  0.0 mm
00:59 73.4 °F /  23.0 °C 64.2 °F /  17.9 °C 30.1 in /  1018.8 hPa West 2.3 mph /  3.7 km/h 2.3 mph /  3.7 km/h 73 % 0 in /  0.0 mm
01:04 73.2 °F /  22.9 °C 64.4 °F /  18.0 °C 30.1 in /  1018.8 hPa SW 2.3 mph /  3.7 km/h 2.3 mph /  3.7 km/h 74 % 0 in /  0.0 mm
01:09 73.2 °F /  22.9 °C 64.4 °F /  18.0 °C 30.1 in /  1018.8 hPa WSW 1.6 mph /  2.6 km/h 1.6 mph /  2.6 km/h 74 % 0 in /  0.0 mm
01:14 73.4 °F /  23.0 °C 64.2 °F /  17.9 °C 30.1 in /  1017.8 hPa WSW 1.4 mph /  2.3 km/h 1.4 mph /  2.3 km/h 73 % 0 in /  0.0 mm
01:19 73.4 °F /  23.0 °C 64.2 °F /  17.9 °C 30.1 in /  1017.8 hPa WSW 2.3 mph /  3.7 km/h 2.3 mph /  3.7 km/h 73 % 0 in /  0.0 mm
01:24 73.4 °F /  23.0 °C 64.6 °F /  18.1 °C 30.1 in /  1017.8 hPa Calm     74 % 0 in /  0.0 mm
01:29 73.4 °F /  23.0 °C 64.6 °F /  18.1 °C 30.1 in /  1017.8 hPa SW 1.2 mph /  1.9 km/h   74 % 0 in /  0.0 mm
01:34 73.4 °F /  23.0 °C 64.2 °F /  17.9 °C 30.1 in /  1017.8 hPa WSW 2.3 mph /  3.7 km/h 2.3 mph /  3.7 km/h 73 % 0 in /  0.0 mm
01:39 73.4 °F /  23.0 °C 64.6 °F /  18.1 °C 30.1 in /  1017.8 hPa Calm     74 % 0 in /  0.0 mm
01:44 73.4 °F /  23.0 °C 64.6 °F /  18.1 °C 30.1 in /  1017.8 hPa WSW 1.2 mph /  1.9 km/h   74 % 0 in /  0.0 mm
01:49 73.4 °F /  23.0 °C 64.6 °F /  18.1 °C 30.1 in /  1017.8 hPa West 1.4 mph /  2.3 km/h   74 % 0 in /  0.0 mm
01:54 73.4 °F /  23.0 °C 64.6 °F /  18.1 °C 30.1 in /  1017.8 hPa SW 2.3 mph /  3.7 km/h 2.3 mph /  3.7 km/h 74 % 0 in /  0.0 mm
01:59 73.4 °F /  23.0 °C 64.6 °F /  18.1 °C 30.1 in /  1017.8 hPa WSW 0.9 mph /  1.4 km/h   74 % 0 in /  0.0 mm
02:04 73.4 °F /  23.0 °C 64.6 °F /  18.1 °C 30.1 in /  1017.8 hPa WSW 1.4 mph /  2.3 km/h   74 % 0 in /  0.0 mm
02:09 73.4 °F /  23.0 °C 64.6 °F /  18.1 °C 30.1 in /  1017.8 hPa WSW 2.3 mph /  3.7 km/h 2.3 mph /  3.7 km/h 74 % 0 in /  0.0 mm
02:14 73.4 °F /  23.0 °C 64.6 °F /  18.1 °C 30.1 in /  1017.8 hPa SW 2.3 mph /  3.7 km/h 2.3 mph /  3.7 km/h 74 % 0 in /  0.0 mm
02:19 73.4 °F /  23.0 °C 64.6 °F /  18.1 °C 30.1 in /  1017.8 hPa WSW 2.3 mph /  3.7 km/h 2.3 mph /  3.7 km/h 74 % 0 in /  0.0 mm
02:24 73.4 °F /  23.0 °C 64.6 °F /  18.1 °C 30.1 in /  1017.8 hPa SW 1.2 mph /  1.9 km/h   74 % 0 in /  0.0 mm
02:29 73.4 °F /  23.0 °C 64.6 °F /  18.1 °C 30.1 in /  1017.8 hPa WSW 2.3 mph /  3.7 km/h   74 % 0 in /  0.0 mm
02:34 73.4 °F /  23.0 °C 64.6 °F /  18.1 °C 30.1 in /  1017.8 hPa WSW 1.2 mph /  1.9 km/h   74 % 0 in /  0.0 mm
02:39 73.4 °F /  23.0 °C 64.6 °F /  18.1 °C 30.1 in /  1017.8 hPa WSW 2.3 mph /  3.7 km/h 2.3 mph /  3.7 km/h 74 % 0 in /  0.0 mm
02:44 73.4 °F /  23.0 °C 64.6 °F /  18.1 °C 30 in /  1016.8 hPa Calm     74 % 0 in /  0.0 mm
02:49 73.4 °F /  23.0 °C 64.6 °F /  18.1 °C 30 in /  1016.8 hPa West 1.4 mph /  2.3 km/h   74 % 0 in /  0.0 mm
02:54 73.4 °F /  23.0 °C 64.6 °F /  18.1 °C 30 in /  1016.8 hPa North 1.2 mph /  1.9 km/h   74 % 0 in /  0.0 mm
02:59 73.4 °F /  23.0 °C 64.6 °F /  18.1 °C 30.1 in /  1017.8 hPa West 1.2 mph /  1.9 km/h   74 % 0 in /  0.0 mm
03:04 73.4 °F /  23.0 °C 64.6 °F /  18.1 °C 30.1 in /  1017.8 hPa Calm     74 % 0 in /  0.0 mm
03:09 73.4 °F /  23.0 °C 64.6 °F /  18.1 °C 30.1 in /  1017.8 hPa Calm     74 % 0 in /  0.0 mm
03:14 73.2 °F /  22.9 °C 64.8 °F /  18.2 °C 30.1 in /  1017.8 hPa WSW 1.6 mph /  2.6 km/h   75 % 0 in /  0.0 mm
03:19 73.2 °F /  22.9 °C 64.8 °F /  18.2 °C 30.1 in /  1017.8 hPa WSW 1.2 mph /  1.9 km/h 1.2 mph /  1.9 km/h 75 % 0 in /  0.0 mm
03:24 73.2 °F /  22.9 °C 64.8 °F /  18.2 °C 30.1 in /  1017.8 hPa SW 1.2 mph /  1.9 km/h   75 % 0 in /  0.0 mm
03:29 73.2 °F /  22.9 °C 64.8 °F /  18.2 °C 30.1 in /  1017.8 hPa WSW 2.3 mph /  3.7 km/h 2.3 mph /  3.7 km/h 75 % 0 in /  0.0 mm
03:34 73.2 °F /  22.9 °C 64.8 °F /  18.2 °C 30.1 in /  1017.8 hPa SW 2.3 mph /  3.7 km/h 2.3 mph /  3.7 km/h 75 % 0 in /  0.0 mm
03:39 73.2 °F /  22.9 °C 64.8 °F /  18.2 °C 30.1 in /  1017.8 hPa WSW 2.3 mph /  3.7 km/h 2.3 mph /  3.7 km/h 75 % 0 in /  0.0 mm
03:44 73.2 °F /  22.9 °C 64.8 °F /  18.2 °C 30.1 in /  1017.8 hPa SSW 1.2 mph /  1.9 km/h   75 % 0 in /  0.0 mm
03:49 73 °F /  22.8 °C 64.6 °F /  18.1 °C 30.1 in /  1017.8 hPa SW 2.4 mph /  3.9 km/h 2.4 mph /  3.9 km/h 75 % 0 in /  0.0 mm
03:54 73 °F /  22.8 °C 64.6 °F /  18.1 °C 30.1 in /  1017.8 hPa Calm     75 % 0 in /  0.0 mm
03:59 73 °F /  22.8 °C 64.6 °F /  18.1 °C 30.1 in /  1017.8 hPa SW 2.9 mph /  4.7 km/h 2.9 mph /  4.7 km/h 75 % 0 in /  0.0 mm
04:04 73 °F /  22.8 °C 64.9 °F /  18.3 °C 30.1 in /  1017.8 hPa SW 1.2 mph /  1.9 km/h   76 % 0 in /  0.0 mm
04:09 73 °F /  22.8 °C 64.9 °F /  18.3 °C 30.1 in /  1017.8 hPa SW 2.3 mph /  3.7 km/h 2.3 mph /  3.7 km/h 76 % 0 in /  0.0 mm
04:14 73 °F /  22.8 °C 64.6 °F /  18.1 °C 30.1 in /  1017.8 hPa SW 3.5 mph /  5.6 km/h 3.5 mph /  5.6 km/h 75 % 0 in /  0.0 mm
04:19 72.9 °F /  22.7 °C 64.8 °F /  18.2 °C 30.1 in /  1017.8 hPa SW 2.3 mph /  3.7 km/h 2.3 mph /  3.7 km/h 76 % 0 in /  0.0 mm
04:24 72.9 °F /  22.7 °C 64.8 °F /  18.2 °C 30.1 in /  1017.8 hPa SW 2.3 mph /  3.7 km/h 2.3 mph /  3.7 km/h 76 % 0 in /  0.0 mm
04:29 72.9 °F /  22.7 °C 64.8 °F /  18.2 °C 30.1 in /  1017.8 hPa WSW 1.6 mph /  2.6 km/h 1.6 mph /  2.6 km/h 76 % 0 in /  0.0 mm
04:34 72.9 °F /  22.7 °C 64.8 °F /  18.2 °C 30.1 in /  1017.8 hPa West 2.3 mph /  3.7 km/h 2.3 mph /  3.7 km/h 76 % 0 in /  0.0 mm
04:39 72.9 °F /  22.7 °C 64.8 °F /  18.2 °C 30.1 in /  1017.8 hPa SW 1.2 mph /  1.9 km/h   76 % 0 in /  0.0 mm
04:44 72.9 °F /  22.7 °C 64.8 °F /  18.2 °C 30.1 in /  1017.8 hPa SW 1.2 mph /  1.9 km/h 1.2 mph /  1.9 km/h 76 % 0 in /  0.0 mm
04:49 72.7 °F /  22.6 °C 64.8 °F /  18.2 °C 30.1 in /  1017.8 hPa WSW 2.3 mph /  3.7 km/h 2.3 mph /  3.7 km/h 76 % 0 in /  0.0 mm
04:54 72.5 °F /  22.5 °C 64.6 °F /  18.1 °C 30.1 in /  1017.8 hPa SW 2.3 mph /  3.7 km/h   76 % 0 in /  0.0 mm
04:59 72.3 °F /  22.4 °C 64.8 °F /  18.2 °C 30 in /  1016.8 hPa SW 2 mph /  3.2 km/h 2 mph /  3.2 km/h 77 % 0 in /  0.0 mm
05:04 72.3 °F /  22.4 °C 64.8 °F /  18.2 °C 30 in /  1016.8 hPa SW 2.3 mph /  3.7 km/h 2.3 mph /  3.7 km/h 77 % 0 in /  0.0 mm
05:09 72.1 °F /  22.3 °C 64.6 °F /  18.1 °C 30 in /  1016.8 hPa SW 1.2 mph /  1.9 km/h 1.2 mph /  1.9 km/h 77 % 0 in /  0.0 mm
05:15 72 °F /  22.2 °C 64.4 °F /  18.0 °C 30.1 in /  1017.8 hPa WSW 2.3 mph /  3.7 km/h 2.3 mph /  3.7 km/h 77 % 0 in /  0.0 mm
05:19 72 °F /  22.2 °C 64.4 °F /  18.0 °C 30.1 in /  1017.8 hPa WSW 1.4 mph /  2.3 km/h 1.4 mph /  2.3 km/h 77 % 0 in /  0.0 mm
05:20 72 °F /  22.2 °C 64.4 °F /  18.0 °C 30.1 in /  1017.8 hPa WSW 1.4 mph /  2.3 km/h 1.4 mph /  2.3 km/h 77 % 0 in /  0.0 mm
05:23 72 °F /  22.2 °C 64.4 °F /  18.0 °C 30.1 in /  1017.8 hPa WSW 2.3 mph /  3.7 km/h 2.3 mph /  3.7 km/h 77 % 0 in /  0.0 mm
05:25 71.8 °F /  22.1 °C 64.2 °F /  17.9 °C 30.1 in /  1017.8 hPa West 2.3 mph /  3.7 km/h   77 % 0 in /  0.0 mm
05:30 71.8 °F /  22.1 °C 64.6 °F /  18.1 °C 30 in /  1016.8 hPa WSW 2.4 mph /  3.9 km/h 2.4 mph /  3.9 km/h 78 % 0 in /  0.0 mm
05:35 71.8 °F /  22.1 °C 64.6 °F /  18.1 °C 30 in /  1016.8 hPa Calm     78 % 0 in /  0.0 mm
05:45 71.6 °F /  22.0 °C 64.4 °F /  18.0 °C 30.1 in /  1017.8 hPa WSW 1.2 mph /  1.9 km/h 1.2 mph /  1.9 km/h 78 % 0 in /  0.0 mm
05:50 71.4 °F /  21.9 °C 64.2 °F /  17.9 °C 30.1 in /  1017.8 hPa WSW 1.6 mph /  2.6 km/h 1.6 mph /  2.6 km/h 78 % 0 in /  0.0 mm
05:55 71.4 °F /  21.9 °C 64.2 °F /  17.9 °C 30.1 in /  1017.8 hPa WSW 2.3 mph /  3.7 km/h 2.3 mph /  3.7 km/h 78 % 0 in /  0.0 mm
06:00 71.4 °F /  21.9 °C 64.2 °F /  17.9 °C 30.1 in /  1017.8 hPa West 2.3 mph /  3.7 km/h 2.3 mph /  3.7 km/h 78 % 0 in /  0.0 mm
06:05 71.4 °F /  21.9 °C 64.6 °F /  18.1 °C 30.1 in /  1017.8 hPa WSW 2.3 mph /  3.7 km/h 2.3 mph /  3.7 km/h 79 % 0 in /  0.0 mm
06:10 71.4 °F /  21.9 °C 64.6 °F /  18.1 °C 30.1 in /  1017.8 hPa Calm     79 % 0 in /  0.0 mm
06:15 71.2 °F /  21.8 °C 64.4 °F /  18.0 °C 30.1 in /  1017.8 hPa West 1.2 mph /  1.9 km/h 1.2 mph /  1.9 km/h 79 % 0 in /  0.0 mm
06:20 71.2 °F /  21.8 °C 64.4 °F /  18.0 °C 30.1 in /  1017.8 hPa Calm     79 % 0 in /  0.0 mm
06:25 71.2 °F /  21.8 °C 64.8 °F /  18.2 °C 30.1 in /  1017.8 hPa West 1.2 mph /  1.9 km/h 1.2 mph /  1.9 km/h 80 % 0 in /  0.0 mm
06:27 71.2 °F /  21.8 °C 64.8 °F /  18.2 °C 30.1 in /  1017.8 hPa Calm     80 % 0 in /  0.0 mm
06:32 71.1 °F /  21.7 °C 64.6 °F /  18.1 °C 30.1 in /  1017.8 hPa Calm     80 % 0 in /  0.0 mm
06:37 71.1 °F /  21.7 °C 64.6 °F /  18.1 °C 30.1 in /  1017.8 hPa Calm     80 % 0 in /  0.0 mm
06:42 70.9 °F /  21.6 °C 64.4 °F /  18.0 °C 30.1 in /  1017.8 hPa West 1.2 mph /  1.9 km/h   80 % 0 in /  0.0 mm
06:47 70.9 °F /  21.6 °C 64.4 °F /  18.0 °C 30.1 in /  1017.8 hPa West 1.2 mph /  1.9 km/h 1.2 mph /  1.9 km/h 80 % 0 in /  0.0 mm
06:52 70.9 °F /  21.6 °C 64.4 °F /  18.0 °C 30.1 in /  1017.8 hPa WSW 1.4 mph /  2.3 km/h   80 % 0 in /  0.0 mm
06:57 70.9 °F /  21.6 °C 64.4 °F /  18.0 °C 30.1 in /  1017.8 hPa Calm     80 % 0 in /  0.0 mm
07:02 70.7 °F /  21.5 °C 64.2 °F /  17.9 °C 30.1 in /  1017.8 hPa Calm     80 % 0 in /  0.0 mm
07:07 70.5 °F /  21.4 °C 64.4 °F /  18.0 °C 30.1 in /  1017.8 hPa Calm     81 % 0 in /  0.0 mm
07:12 70.3 °F /  21.3 °C 64.2 °F /  17.9 °C 30.1 in /  1017.8 hPa Calm     81 % 0 in /  0.0 mm
07:17 70.3 °F /  21.3 °C 64.2 °F /  17.9 °C 30.1 in /  1017.8 hPa Calm     81 % 0 in /  0.0 mm
07:22 70.3 °F /  21.3 °C 64.2 °F /  17.9 °C 30.1 in /  1017.8 hPa Calm     81 % 0 in /  0.0 mm
07:27 70.3 °F /  21.3 °C 64.2 °F /  17.9 °C 30.1 in /  1017.8 hPa Calm     81 % 0 in /  0.0 mm
07:32 70.2 °F /  21.2 °C 64.4 °F /  18.0 °C 30.1 in /  1017.8 hPa Calm     82 % 0 in /  0.0 mm
07:37 70.2 °F /  21.2 °C 64.4 °F /  18.0 °C 30.1 in /  1017.8 hPa Calm     82 % 0 in /  0.0 mm
07:42 70.2 °F /  21.2 °C 64.4 °F /  18.0 °C 30.1 in /  1017.8 hPa Calm     82 % 0 in /  0.0 mm
07:47 70.2 °F /  21.2 °C 64.4 °F /  18.0 °C 30.1 in /  1017.8 hPa Calm     82 % 0 in /  0.0 mm
07:52 70.2 °F /  21.2 °C 64.4 °F /  18.0 °C 30.1 in /  1017.8 hPa Calm     82 % 0 in /  0.0 mm
07:57 70.2 °F /  21.2 °C 64.4 °F /  18.0 °C 30.1 in /  1018.8 hPa SW 1.2 mph /  1.9 km/h 1.2 mph /  1.9 km/h 82 % 0 in /  0.0 mm
08:02 70.2 °F /  21.2 °C 64.4 °F /  18.0 °C 30.1 in /  1018.8 hPa Calm     82 % 0 in /  0.0 mm
08:07 70.3 °F /  21.3 °C 64.6 °F /  18.1 °C 30.1 in /  1018.8 hPa Calm     82 % 0 in /  0.0 mm
08:12 70.5 °F /  21.4 °C 65.1 °F /  18.4 °C 30.1 in /  1017.8 hPa Calm     83 % 0 in /  0.0 mm
08:17 70.7 °F /  21.5 °C 64.9 °F /  18.3 °C 30.1 in /  1017.8 hPa NE 2.4 mph /  3.9 km/h 2.4 mph /  3.9 km/h 82 % 0 in /  0.0 mm
08:22 70.9 °F /  21.6 °C 65.1 °F /  18.4 °C 30.1 in /  1017.8 hPa East 2.3 mph /  3.7 km/h 2.3 mph /  3.7 km/h 82 % 0 in /  0.0 mm
08:27 70.9 °F /  21.6 °C 65.1 °F /  18.4 °C 30.1 in /  1018.8 hPa East 1.2 mph /  1.9 km/h 1.2 mph /  1.9 km/h 82 % 0 in /  0.0 mm
08:30 71.1 °F /  21.7 °C 65.3 °F /  18.5 °C 30.1 in /  1018.8 hPa Calm     82 % 0 in /  0.0 mm
08:35 71.1 °F /  21.7 °C 65.3 °F /  18.5 °C 30.1 in /  1018.8 hPa Calm     82 % 0 in /  0.0 mm
08:40 71.2 °F /  21.8 °C 65.5 °F /  18.6 °C 30.1 in /  1018.8 hPa SSW 1.2 mph /  1.9 km/h   82 % 0 in /  0.0 mm
08:45 71.4 °F /  21.9 °C 65.7 °F /  18.7 °C 30.1 in /  1018.8 hPa Calm     82 % 0 in /  0.0 mm
08:50 71.6 °F /  22.0 °C 65.8 °F /  18.8 °C 30.1 in /  1018.8 hPa SW 2 mph /  3.2 km/h 2 mph /  3.2 km/h 82 % 0 in /  0.0 mm
08:55 72 °F /  22.2 °C 66.2 °F /  19.0 °C 30.1 in /  1018.8 hPa Calm     82 % 0 in /  0.0 mm
09:00 72.3 °F /  22.4 °C 65.8 °F /  18.8 °C 30.1 in /  1019.9 hPa SSW 2.3 mph /  3.7 km/h 2.3 mph /  3.7 km/h 80 % 0 in /  0.0 mm
09:01 72.3 °F /  22.4 °C 65.8 °F /  18.8 °C 30.1 in /  1019.9 hPa SW 2.3 mph /  3.7 km/h 2.3 mph /  3.7 km/h 80 % 0 in /  0.0 mm
09:06 72.5 °F /  22.5 °C 65.7 °F /  18.7 °C 30.1 in /  1019.9 hPa WSW 3.5 mph /  5.6 km/h 3.5 mph /  5.6 km/h 79 % 0 in /  0.0 mm
09:11 73 °F /  22.8 °C 66 °F /  18.9 °C 30.1 in /  1019.9 hPa WSW 2.4 mph /  3.9 km/h 2.6 mph /  4.2 km/h 79 % 0 in /  0.0 mm
09:16 74.1 °F /  23.4 °C 66.4 °F /  19.1 °C 30.1 in /  1018.8 hPa SW 2.9 mph /  4.7 km/h 2.9 mph /  4.7 km/h 77 % 0 in /  0.0 mm
09:21 74.5 °F /  23.6 °C 66.4 °F /  19.1 °C 30.1 in /  1018.8 hPa West 2.3 mph /  3.7 km/h 2.3 mph /  3.7 km/h 76 % 0 in /  0.0 mm
09:26 74.7 °F /  23.7 °C 66.2 °F /  19.0 °C 30.1 in /  1018.8 hPa SSW 2.3 mph /  3.7 km/h 2.3 mph /  3.7 km/h 75 % 0 in /  0.0 mm
09:31 74.8 °F /  23.8 °C 66.4 °F /  19.1 °C 30.1 in /  1019.9 hPa SW 2.3 mph /  3.7 km/h   75 % 0 in /  0.0 mm
09:36 75 °F /  23.9 °C 66.2 °F /  19.0 °C 30.1 in /  1019.9 hPa WSW 2.3 mph /  3.7 km/h 2.3 mph /  3.7 km/h 74 % 0 in /  0.0 mm
09:41 75.4 °F /  24.1 °C 66 °F /  18.9 °C 30.1 in /  1019.9 hPa WSW 3.5 mph /  5.6 km/h 3.5 mph /  5.6 km/h 73 % 0 in /  0.0 mm
09:46 76.3 °F /  24.6 °C 66.6 °F /  19.2 °C 30.1 in /  1018.8 hPa SW 4.6 mph /  7.4 km/h 4.6 mph /  7.4 km/h 72 % 0 in /  0.0 mm
09:51 77 °F /  25.0 °C 66 °F /  18.9 °C 30.1 in /  1018.8 hPa WSW 3.5 mph /  5.6 km/h 3.5 mph /  5.6 km/h 69 % 0 in /  0.0 mm
09:56 77.4 °F /  25.2 °C 66 °F /  18.9 °C 30.1 in /  1018.8 hPa SW 3.5 mph /  5.6 km/h 3.5 mph /  5.6 km/h 68 % 0 in /  0.0 mm
10:01 78.1 °F /  25.6 °C 66.2 °F /  19.0 °C 30.1 in /  1019.9 hPa ENE 2.3 mph /  3.7 km/h 2.3 mph /  3.7 km/h 67 % 0 in /  0.0 mm
10:06 78.8 °F /  26.0 °C 66.6 °F /  19.2 °C 30.1 in /  1019.9 hPa WSW 2.3 mph /  3.7 km/h   66 % 0 in /  0.0 mm
10:11 78.4 °F /  25.8 °C 66 °F /  18.9 °C 30.1 in /  1019.9 hPa SE 3.8 mph /  6.1 km/h 3.8 mph /  6.1 km/h 66 % 0 in /  0.0 mm
10:16 78.4 °F /  25.8 °C 65.7 °F /  18.7 °C 30.1 in /  1018.8 hPa WSW 3.5 mph /  5.6 km/h 3.5 mph /  5.6 km/h 65 % 0 in /  0.0 mm
10:21 78.8 °F /  26.0 °C 66 °F /  18.9 °C 30.1 in /  1018.8 hPa SW 4.6 mph /  7.4 km/h 4.6 mph /  7.4 km/h 65 % 0 in /  0.0 mm
10:26 78.8 °F /  26.0 °C 66 °F /  18.9 °C 30.1 in /  1018.8 hPa SSE 3.5 mph /  5.6 km/h 3.5 mph /  5.6 km/h 65 % 0 in /  0.0 mm
10:31 79.5 °F /  26.4 °C 66.4 °F /  19.1 °C 30.1 in /  1019.9 hPa SE 3.5 mph /  5.6 km/h 3.5 mph /  5.6 km/h 64 % 0 in /  0.0 mm
10:36 79 °F /  26.1 °C 64.8 °F /  18.2 °C 30.1 in /  1019.9 hPa East 4.6 mph /  7.4 km/h 4.6 mph /  7.4 km/h 62 % 0 in /  0.0 mm
10:41 79 °F /  26.1 °C 65.3 °F /  18.5 °C 30.1 in /  1019.9 hPa NNE 3.5 mph /  5.6 km/h 3.5 mph /  5.6 km/h 63 % 0 in /  0.0 mm
10:46 79.5 °F /  26.4 °C 65.5 °F /  18.6 °C 30.1 in /  1019.9 hPa NNW 3.1 mph /  5.0 km/h 3.1 mph /  5.0 km/h 62 % 0 in /  0.0 mm
10:51 80.4 °F /  26.9 °C 66.2 °F /  19.0 °C 30.1 in /  1019.9 hPa NNW 2.3 mph /  3.7 km/h 2.3 mph /  3.7 km/h 62 % 0 in /  0.0 mm
10:56 81 °F /  27.2 °C 66.2 °F /  19.0 °C 30.1 in /  1019.9 hPa SSW 3.6 mph /  5.8 km/h 3.6 mph /  5.8 km/h 61 % 0 in /  0.0 mm
11:01 79.9 °F /  26.6 °C 65.1 °F /  18.4 °C 30.1 in /  1019.9 hPa SW 3.8 mph /  6.1 km/h 3.8 mph /  6.1 km/h 61 % 0 in /  0.0 mm
11:06 79.9 °F /  26.6 °C 65.1 °F /  18.4 °C 30.1 in /  1019.9 hPa WNW 3.5 mph /  5.6 km/h 3.5 mph /  5.6 km/h 61 % 0 in /  0.0 mm
11:11 80.6 °F /  27.0 °C 65.5 °F /  18.6 °C 30.1 in /  1019.9 hPa ENE 3.8 mph /  6.1 km/h 3.8 mph /  6.1 km/h 60 % 0 in /  0.0 mm
11:16 81.3 °F /  27.4 °C 65.1 °F /  18.4 °C 30.1 in /  1018.8 hPa South 5.8 mph /  9.3 km/h 5.8 mph /  9.3 km/h 58 % 0 in /  0.0 mm
11:21 82.2 °F /  27.9 °C 66 °F /  18.9 °C 30.1 in /  1018.8 hPa ESE 3.5 mph /  5.6 km/h 3.5 mph /  5.6 km/h 58 % 0 in /  0.0 mm
11:26 83.5 °F /  28.6 °C 66.6 °F /  19.2 °C 30.1 in /  1018.8 hPa SE 2.3 mph /  3.7 km/h 2.3 mph /  3.7 km/h 57 % 0 in /  0.0 mm
11:31 84 °F /  28.9 °C 67.1 °F /  19.5 °C 30.1 in /  1018.8 hPa West 3.5 mph /  5.6 km/h 3.5 mph /  5.6 km/h 57 % 0 in /  0.0 mm
11:36 83.3 °F /  28.5 °C 66 °F /  18.9 °C 30.1 in /  1018.8 hPa SSW 4.6 mph /  7.4 km/h 4.6 mph /  7.4 km/h 56 % 0 in /  0.0 mm
11:41 83.3 °F /  28.5 °C 65.5 °F /  18.6 °C 30.1 in /  1018.8 hPa South 2.3 mph /  3.7 km/h 2.3 mph /  3.7 km/h 55 % 0 in /  0.0 mm
11:46 82.6 °F /  28.1 °C 63.7 °F /  17.6 °C 30.1 in /  1019.9 hPa ENE 5.8 mph /  9.3 km/h 5.8 mph /  9.3 km/h 53 % 0 in /  0.0 mm
11:51 80.8 °F /  27.1 °C 62.6 °F /  17.0 °C 30.1 in /  1019.9 hPa ENE 5.8 mph /  9.3 km/h 5.8 mph /  9.3 km/h 54 % 0 in /  0.0 mm
11:56 80.8 °F /  27.1 °C 63.7 °F /  17.6 °C 30.1 in /  1019.9 hPa South 2.6 mph /  4.2 km/h 2.6 mph /  4.2 km/h 56 % 0 in /  0.0 mm
12:01 81.1 °F /  27.3 °C 64.6 °F /  18.1 °C 30.1 in /  1019.9 hPa SSE 4.6 mph /  7.4 km/h 4.6 mph /  7.4 km/h 57 % 0 in /  0.0 mm
12:06 81.1 °F /  27.3 °C 64.6 °F /  18.1 °C 30.1 in /  1019.9 hPa East 4.6 mph /  7.4 km/h 4.6 mph /  7.4 km/h 57 % 0 in /  0.0 mm
12:11 80.4 °F /  26.9 °C 64.8 °F /  18.2 °C 30.1 in /  1019.9 hPa East 3.5 mph /  5.6 km/h 3.5 mph /  5.6 km/h 59 % 0 in /  0.0 mm
12:16 79.7 °F /  26.5 °C 64.6 °F /  18.1 °C 30.1 in /  1018.8 hPa SE 8.1 mph /  13.0 km/h 8.1 mph /  13.0 km/h 60 % 0 in /  0.0 mm
12:21 80.2 °F /  26.8 °C 65.1 °F /  18.4 °C 30.1 in /  1018.8 hPa ESE 10.2 mph /  16.4 km/h 10.2 mph /  16.4 km/h 60 % 0 in /  0.0 mm
12:26 80.1 °F /  26.7 °C 65.5 °F /  18.6 °C 30.1 in /  1018.8 hPa SSE 5.8 mph /  9.3 km/h 5.8 mph /  9.3 km/h 61 % 0 in /  0.0 mm
12:31 80.4 °F /  26.9 °C 65.7 °F /  18.7 °C 30.1 in /  1018.8 hPa East 6.9 mph /  11.1 km/h 6.9 mph /  11.1 km/h 61 % 0 in /  0.0 mm
12:36 80.6 °F /  27.0 °C 64.9 °F /  18.3 °C 30.1 in /  1018.8 hPa South 5.8 mph /  9.3 km/h 5.8 mph /  9.3 km/h 59 % 0 in /  0.0 mm
12:41 80.4 °F /  26.9 °C 65.7 °F /  18.7 °C 30.1 in /  1018.8 hPa SE 4.6 mph /  7.4 km/h 4.6 mph /  7.4 km/h 61 % 0 in /  0.0 mm
12:46 80.6 °F /  27.0 °C 65.5 °F /  18.6 °C 30.1 in /  1018.8 hPa ESE 4.6 mph /  7.4 km/h 4.6 mph /  7.4 km/h 60 % 0 in /  0.0 mm
12:51 79.7 °F /  26.5 °C 65.1 °F /  18.4 °C 30.1 in /  1018.8 hPa South 5.8 mph /  9.3 km/h 5.8 mph /  9.3 km/h 61 % 0 in /  0.0 mm
12:56 78.6 °F /  25.9 °C 64.6 °F /  18.1 °C 30.1 in /  1018.8 hPa West 11.5 mph /  18.5 km/h 11.5 mph /  18.5 km/h 62 % 0 in /  0.0 mm
13:01 77.9 °F /  25.5 °C 63.9 °F /  17.7 °C 30.1 in /  1018.8 hPa ENE 8.7 mph /  14.0 km/h 8.7 mph /  14.0 km/h 62 % 0 in /  0.0 mm
13:06 77.2 °F /  25.1 °C 63.7 °F /  17.6 °C 30.1 in /  1018.8 hPa SE 8.1 mph /  13.0 km/h 8.1 mph /  13.0 km/h 63 % 0 in /  0.0 mm
13:11 77.7 °F /  25.4 °C 64.6 °F /  18.1 °C 30.1 in /  1018.8 hPa SE 8.5 mph /  13.7 km/h 8.5 mph /  13.7 km/h 64 % 0 in /  0.0 mm
13:16 78.1 °F /  25.6 °C 64.6 °F /  18.1 °C 30.1 in /  1018.8 hPa SE 5.8 mph /  9.3 km/h 5.8 mph /  9.3 km/h 63 % 0 in /  0.0 mm
13:21 78.3 °F /  25.7 °C 65.1 °F /  18.4 °C 30.1 in /  1018.8 hPa SSE 9.2 mph /  14.8 km/h 9.2 mph /  14.8 km/h 64 % 0 in /  0.0 mm
13:26 80.4 °F /  26.9 °C 66.2 °F /  19.0 °C 30.1 in /  1018.8 hPa ESE 4.6 mph /  7.4 km/h 4.6 mph /  7.4 km/h 62 % 0 in /  0.0 mm
13:31 81.9 °F /  27.7 °C 66.6 °F /  19.2 °C 30.1 in /  1018.8 hPa SSE 4.9 mph /  7.9 km/h 4.9 mph /  7.9 km/h 60 % 0 in /  0.0 mm
13:36 81.9 °F /  27.7 °C 66.6 °F /  19.2 °C 30.1 in /  1018.8 hPa SSW 3.5 mph /  5.6 km/h 3.5 mph /  5.6 km/h 60 % 0 in /  0.0 mm
13:41 82.6 °F /  28.1 °C 66.7 °F /  19.3 °C 30.1 in /  1018.8 hPa SW 6.9 mph /  11.1 km/h 6.9 mph /  11.1 km/h 59 % 0 in /  0.0 mm
13:46 83.3 °F /  28.5 °C 66 °F /  18.9 °C 30.1 in /  1018.8 hPa SSW 4.6 mph /  7.4 km/h 4.6 mph /  7.4 km/h 56 % 0 in /  0.0 mm
13:51 83.8 °F /  28.8 °C 66.6 °F /  19.2 °C 30.1 in /  1018.8 hPa SSE 5.8 mph /  9.3 km/h 5.8 mph /  9.3 km/h 56 % 0 in /  0.0 mm
13:56 82.8 °F /  28.2 °C 64.9 °F /  18.3 °C 30.1 in /  1018.8 hPa SSW 6.9 mph /  11.1 km/h 6.9 mph /  11.1 km/h 55 % 0 in /  0.0 mm
14:01 83.8 °F /  28.8 °C 66.6 °F /  19.2 °C 30.1 in /  1017.8 hPa SSW 4.3 mph /  6.9 km/h 4.3 mph /  6.9 km/h 56 % 0 in /  0.0 mm
14:06 84 °F /  28.9 °C 64.9 °F /  18.3 °C 30.1 in /  1017.8 hPa SSE 11.5 mph /  18.5 km/h 11.5 mph /  18.5 km/h 53 % 0 in /  0.0 mm
14:11 84.9 °F /  29.4 °C 64.8 °F /  18.2 °C 30.1 in /  1017.8 hPa SSE 3.6 mph /  5.8 km/h 3.6 mph /  5.8 km/h 51 % 0 in /  0.0 mm
14:16 84.9 °F /  29.4 °C 64.2 °F /  17.9 °C 30.1 in /  1017.8 hPa SSE 8.1 mph /  13.0 km/h 8.1 mph /  13.0 km/h 50 % 0 in /  0.0 mm
14:21 85.6 °F /  29.8 °C 66 °F /  18.9 °C 30.1 in /  1017.8 hPa WSW 5.9 mph /  9.5 km/h 5.9 mph /  9.5 km/h 52 % 0 in /  0.0 mm
14:26 85.5 °F /  29.7 °C 64.8 °F /  18.2 °C 30.1 in /  1017.8 hPa South 3.5 mph /  5.6 km/h 3.5 mph /  5.6 km/h 50 % 0 in /  0.0 mm
14:31 86.7 °F /  30.4 °C 65.8 °F /  18.8 °C 30.1 in /  1017.8 hPa WSW 8.5 mph /  13.7 km/h 8.5 mph /  13.7 km/h 50 % 0 in /  0.0 mm
14:36 87.1 °F /  30.6 °C 64.9 °F /  18.3 °C 30.1 in /  1017.8 hPa ESE 6.9 mph /  11.1 km/h 6.9 mph /  11.1 km/h 48 % 0 in /  0.0 mm
14:41 86.2 °F /  30.1 °C 64.2 °F /  17.9 °C 30.1 in /  1017.8 hPa SSW 5.8 mph /  9.3 km/h 5.8 mph /  9.3 km/h 48 % 0 in /  0.0 mm
14:46 86.2 °F /  30.1 °C 64.2 °F /  17.9 °C 30.1 in /  1017.8 hPa South 6.9 mph /  11.1 km/h 6.9 mph /  11.1 km/h 48 % 0 in /  0.0 mm
14:51 85.8 °F /  29.9 °C 64.6 °F /  18.1 °C 30.1 in /  1017.8 hPa SSW 5.8 mph /  9.3 km/h 5.8 mph /  9.3 km/h 49 % 0 in /  0.0 mm
14:56 85.8 °F /  29.9 °C 64.6 °F /  18.1 °C 30.1 in /  1017.8 hPa SW 5.9 mph /  9.5 km/h 5.9 mph /  9.5 km/h 49 % 0 in /  0.0 mm
15:01 85.5 °F /  29.7 °C 63.5 °F /  17.5 °C 30.1 in /  1017.8 hPa ESE 4.6 mph /  7.4 km/h 4.6 mph /  7.4 km/h 48 % 0 in /  0.0 mm
15:06 85.8 °F /  29.9 °C 64.6 °F /  18.1 °C 30.1 in /  1017.8 hPa SW 5.8 mph /  9.3 km/h 5.8 mph /  9.3 km/h 49 % 0 in /  0.0 mm
15:11 85.8 °F /  29.9 °C 63.9 °F /  17.7 °C 30.1 in /  1017.8 hPa SSW 8.1 mph /  13.0 km/h 8.1 mph /  13.0 km/h 48 % 0 in /  0.0 mm
15:16 86.4 °F /  30.2 °C 63.9 °F /  17.7 °C 30.1 in /  1017.8 hPa SW 6.4 mph /  10.3 km/h 6.4 mph /  10.3 km/h 47 % 0 in /  0.0 mm
15:21 86.2 °F /  30.1 °C 63 °F /  17.2 °C 30.1 in /  1017.8 hPa SW 6.9 mph /  11.1 km/h 6.9 mph /  11.1 km/h 46 % 0 in /  0.0 mm
15:22 86 °F /  30.0 °C 62.2 °F /  16.8 °C 30.1 in /  1017.8 hPa SW 9 mph /  14.5 km/h 9 mph /  14.5 km/h 45 % 0 in /  0.0 mm
15:27 87.1 °F /  30.6 °C 63.1 °F /  17.3 °C 30.1 in /  1017.8 hPa WSW 3.5 mph /  5.6 km/h 3.5 mph /  5.6 km/h 45 % 0 in /  0.0 mm
15:32 86.4 °F /  30.2 °C 63.1 °F /  17.3 °C 30.1 in /  1017.8 hPa SW 9.2 mph /  14.8 km/h 9.2 mph /  14.8 km/h 46 % 0 in /  0.0 mm
15:37 87.4 °F /  30.8 °C 63.5 °F /  17.5 °C 30.1 in /  1017.8 hPa SSW 3.5 mph /  5.6 km/h 3.6 mph /  5.8 km/h 45 % 0 in /  0.0 mm
15:42 86.4 °F /  30.2 °C 63.1 °F /  17.3 °C 30.1 in /  1017.8 hPa ESE 5.8 mph /  9.3 km/h 5.8 mph /  9.3 km/h 46 % 0 in /  0.0 mm
15:47 86.4 °F /  30.2 °C 62.4 °F /  16.9 °C 30.1 in /  1017.8 hPa WSW 5.8 mph /  9.3 km/h 5.8 mph /  9.3 km/h 45 % 0 in /  0.0 mm
15:52 86.7 °F /  30.4 °C 62.2 °F /  16.8 °C 30.1 in /  1017.8 hPa WSW 6.9 mph /  11.1 km/h 6.9 mph /  11.1 km/h 44 % 0 in /  0.0 mm
15:57 86 °F /  30.0 °C 61 °F /  16.1 °C 30.1 in /  1017.8 hPa SW 10.4 mph /  16.7 km/h 10.4 mph /  16.7 km/h 43 % 0 in /  0.0 mm
16:02 85.5 °F /  29.7 °C 60.4 °F /  15.8 °C 30.1 in /  1017.8 hPa SSW 8.1 mph /  13.0 km/h 8.1 mph /  13.0 km/h 43 % 0 in /  0.0 mm
16:07 86 °F /  30.0 °C 61 °F /  16.1 °C 30.1 in /  1017.8 hPa WSW 12.3 mph /  19.8 km/h 12.3 mph /  19.8 km/h 43 % 0 in /  0.0 mm
16:12 85.6 °F /  29.8 °C 60.6 °F /  15.9 °C 30.1 in /  1017.8 hPa SSW 9.2 mph /  14.8 km/h 9.2 mph /  14.8 km/h 43 % 0 in /  0.0 mm
16:17 85.6 °F /  29.8 °C 60.6 °F /  15.9 °C 30.1 in /  1017.8 hPa SW 10.4 mph /  16.7 km/h 10.4 mph /  16.7 km/h 43 % 0 in /  0.0 mm
16:22 85.8 °F /  29.9 °C 60.6 °F /  15.9 °C 30.1 in /  1017.8 hPa WSW 11.5 mph /  18.5 km/h 11.5 mph /  18.5 km/h 43 % 0 in /  0.0 mm
16:27 85.5 °F /  29.7 °C 61.2 °F /  16.2 °C 30.1 in /  1017.8 hPa South 13.8 mph /  22.2 km/h 13.8 mph /  22.2 km/h 44 % 0 in /  0.0 mm
16:32 85.5 °F /  29.7 °C 60.4 °F /  15.8 °C 30.1 in /  1017.8 hPa SW 7.4 mph /  11.9 km/h 7.4 mph /  11.9 km/h 43 % 0 in /  0.0 mm
16:37 85.3 °F /  29.6 °C 60.3 °F /  15.7 °C 30.1 in /  1017.8 hPa SW 12.7 mph /  20.4 km/h 12.7 mph /  20.4 km/h 43 % 0 in /  0.0 mm
16:42 85.3 °F /  29.6 °C 60.3 °F /  15.7 °C 30.1 in /  1018.8 hPa South 4.6 mph /  7.4 km/h 4.6 mph /  7.4 km/h 43 % 0 in /  0.0 mm
16:47 85.1 °F /  29.5 °C 60.1 °F /  15.6 °C 30.1 in /  1018.8 hPa SW 7.8 mph /  12.6 km/h 7.8 mph /  12.6 km/h 43 % 0 in /  0.0 mm
16:52 85.5 °F /  29.7 °C 60.4 °F /  15.8 °C 30.1 in /  1018.8 hPa SW 8.1 mph /  13.0 km/h 8.1 mph /  13.0 km/h 43 % 0 in /  0.0 mm
16:57 84.9 °F /  29.4 °C 59.9 °F /  15.5 °C 30.1 in /  1017.8 hPa SW 8.1 mph /  13.0 km/h 8.1 mph /  13.0 km/h 43 % 0 in /  0.0 mm
17:02 84.7 °F /  29.3 °C 59.7 °F /  15.4 °C 30.1 in /  1017.8 hPa SSW 8.1 mph /  13.0 km/h 8.1 mph /  13.0 km/h 43 % 0 in /  0.0 mm
17:07 85.5 °F /  29.7 °C 60.4 °F /  15.8 °C 30.1 in /  1017.8 hPa SW 8.1 mph /  13.0 km/h 8.1 mph /  13.0 km/h 43 % 0 in /  0.0 mm
17:12 84.2 °F /  29.0 °C 59.9 °F /  15.5 °C 30.1 in /  1017.8 hPa SSW 5.8 mph /  9.3 km/h 5.9 mph /  9.5 km/h 44 % 0 in /  0.0 mm
17:17 85.3 °F /  29.6 °C 61 °F /  16.1 °C 30.1 in /  1017.8 hPa South 5.8 mph /  9.3 km/h 5.8 mph /  9.3 km/h 44 % 0 in /  0.0 mm
17:22 85.6 °F /  29.8 °C 61.9 °F /  16.6 °C 30.1 in /  1017.8 hPa WSW 8.1 mph /  13.0 km/h 8.1 mph /  13.0 km/h 45 % 0 in /  0.0 mm
17:27 85.1 °F /  29.5 °C 61.3 °F /  16.3 °C 30.1 in /  1017.8 hPa West 7.4 mph /  11.9 km/h 7.4 mph /  11.9 km/h 45 % 0 in /  0.0 mm
17:32 84.6 °F /  29.2 °C 61 °F /  16.1 °C 30.1 in /  1017.8 hPa SSW 6.9 mph /  11.1 km/h 6.9 mph /  11.1 km/h 45 % 0 in /  0.0 mm
17:37 85.3 °F /  29.6 °C 61.5 °F /  16.4 °C 30.1 in /  1017.8 hPa SW 9.4 mph /  15.1 km/h 9.4 mph /  15.1 km/h 45 % 0 in /  0.0 mm
17:42 84.4 °F /  29.1 °C 61.3 °F /  16.3 °C 30.1 in /  1017.8 hPa SW 2.3 mph /  3.7 km/h 2.3 mph /  3.7 km/h 46 % 0 in /  0.0 mm
17:47 83.8 °F /  28.8 °C 61.5 °F /  16.4 °C 30.1 in /  1017.8 hPa WSW 4.6 mph /  7.4 km/h 4.6 mph /  7.4 km/h 47 % 0 in /  0.0 mm
17:52 83.5 °F /  28.6 °C 61.7 °F /  16.5 °C 30.1 in /  1017.8 hPa SE 6.2 mph /  10.0 km/h 6.2 mph /  10.0 km/h 48 % 0 in /  0.0 mm
17:57 82.4 °F /  28.0 °C 60.6 °F /  15.9 °C 30.1 in /  1017.8 hPa SW 5.8 mph /  9.3 km/h 5.8 mph /  9.3 km/h 48 % 0 in /  0.0 mm
18:02 81.7 °F /  27.6 °C 60.6 °F /  15.9 °C 30.1 in /  1017.8 hPa SSW 5.8 mph /  9.3 km/h 5.8 mph /  9.3 km/h 49 % 0 in /  0.0 mm
18:07 81.9 °F /  27.7 °C 60.8 °F /  16.0 °C 30.1 in /  1017.8 hPa SSE 3.6 mph /  5.8 km/h 3.6 mph /  5.8 km/h 49 % 0 in /  0.0 mm
18:12 81.5 °F /  27.5 °C 61.2 °F /  16.2 °C 30.1 in /  1017.8 hPa ESE 4.6 mph /  7.4 km/h 4.6 mph /  7.4 km/h 50 % 0 in /  0.0 mm
18:17 81.1 °F /  27.3 °C 60.6 °F /  15.9 °C 30.1 in /  1017.8 hPa SW 8.1 mph /  13.0 km/h 8.1 mph /  13.0 km/h 50 % 0 in /  0.0 mm
18:22 81 °F /  27.2 °C 60.6 °F /  15.9 °C 30.1 in /  1017.8 hPa WSW 6.9 mph /  11.1 km/h 6.9 mph /  11.1 km/h 50 % 0 in /  0.0 mm
18:27 80.8 °F /  27.1 °C 60.4 °F /  15.8 °C 30.1 in /  1017.8 hPa West 4.6 mph /  7.4 km/h 4.6 mph /  7.4 km/h 50 % 0 in /  0.0 mm
18:32 80.6 °F /  27.0 °C 60.3 °F /  15.7 °C 30.1 in /  1017.8 hPa SW 8.5 mph /  13.7 km/h 8.5 mph /  13.7 km/h 50 % 0 in /  0.0 mm
18:37 80.8 °F /  27.1 °C 61 °F /  16.1 °C 30.1 in /  1017.8 hPa SW 6.9 mph /  11.1 km/h 6.9 mph /  11.1 km/h 51 % 0 in /  0.0 mm
18:42 80.8 °F /  27.1 °C 61 °F /  16.1 °C 30.1 in /  1017.8 hPa SW 6.9 mph /  11.1 km/h 6.9 mph /  11.1 km/h 51 % 0 in /  0.0 mm
18:47 80.8 °F /  27.1 °C 61 °F /  16.1 °C 30.1 in /  1017.8 hPa SW 3.5 mph /  5.6 km/h 3.5 mph /  5.6 km/h 51 % 0 in /  0.0 mm
18:52 80.8 °F /  27.1 °C 61.5 °F /  16.4 °C 30.1 in /  1017.8 hPa SSW 4.6 mph /  7.4 km/h 4.6 mph /  7.4 km/h 52 % 0 in /  0.0 mm
18:57 81.1 °F /  27.3 °C 61.3 °F /  16.3 °C 30.1 in /  1017.8 hPa SW 4.6 mph /  7.4 km/h 4.6 mph /  7.4 km/h 51 % 0 in /  0.0 mm
19:02 81 °F /  27.2 °C 61.2 °F /  16.2 °C 30.1 in /  1017.8 hPa WSW 5.8 mph /  9.3 km/h 5.8 mph /  9.3 km/h 51 % 0 in /  0.0 mm
19:07 81 °F /  27.2 °C 61.7 °F /  16.5 °C 30.1 in /  1017.8 hPa SW 3.5 mph /  5.6 km/h 3.8 mph /  6.1 km/h 52 % 0 in /  0.0 mm
19:12 80.8 °F /  27.1 °C 61.5 °F /  16.4 °C 30.1 in /  1017.8 hPa SSW 5.8 mph /  9.3 km/h 5.8 mph /  9.3 km/h 52 % 0 in /  0.0 mm
19:17 80.2 °F /  26.8 °C 61.5 °F /  16.4 °C 30.1 in /  1017.8 hPa South 4.6 mph /  7.4 km/h 4.6 mph /  7.4 km/h 53 % 0 in /  0.0 mm
19:22 80.1 °F /  26.7 °C 61.9 °F /  16.6 °C 30.1 in /  1017.8 hPa SW 2.3 mph /  3.7 km/h 2.3 mph /  3.7 km/h 54 % 0 in /  0.0 mm
19:27 79.7 °F /  26.5 °C 61.5 °F /  16.4 °C 30.1 in /  1017.8 hPa South 8.1 mph /  13.0 km/h 8.1 mph /  13.0 km/h 54 % 0 in /  0.0 mm
19:32 79.3 °F /  26.3 °C 61.9 °F /  16.6 °C 30.1 in /  1017.8 hPa SSE 8.1 mph /  13.0 km/h 8.1 mph /  13.0 km/h 55 % 0 in /  0.0 mm
19:37 79.2 °F /  26.2 °C 61.5 °F /  16.4 °C 30.1 in /  1017.8 hPa SSW 5.8 mph /  9.3 km/h 5.8 mph /  9.3 km/h 55 % 0 in /  0.0 mm
19:42 78.6 °F /  25.9 °C 61.5 °F /  16.4 °C 30.1 in /  1017.8 hPa WSW 8.1 mph /  13.0 km/h 8.1 mph /  13.0 km/h 56 % 0 in /  0.0 mm
19:43 78.6 °F /  25.9 °C 61.5 °F /  16.4 °C 30.1 in /  1017.8 hPa SW 3.5 mph /  5.6 km/h 4.3 mph /  6.9 km/h 56 % 0 in /  0.0 mm
19:48 78.4 °F /  25.8 °C 61.3 °F /  16.3 °C 30.1 in /  1017.8 hPa SW 5.8 mph /  9.3 km/h 5.8 mph /  9.3 km/h 56 % 0 in /  0.0 mm
19:53 78.3 °F /  25.7 °C 61.9 °F /  16.6 °C 30.1 in /  1017.8 hPa SSW 5.8 mph /  9.3 km/h 5.8 mph /  9.3 km/h 57 % 0 in /  0.0 mm
19:58 78.1 °F /  25.6 °C 61.5 °F /  16.4 °C 30 in /  1016.8 hPa SW 5.8 mph /  9.3 km/h 5.8 mph /  9.3 km/h 57 % 0 in /  0.0 mm
20:03 77.7 °F /  25.4 °C 61.3 °F /  16.3 °C 30 in /  1016.8 hPa SW 4.6 mph /  7.4 km/h 4.6 mph /  7.4 km/h 57 % 0 in /  0.0 mm
20:08 77.5 °F /  25.3 °C 61.2 °F /  16.2 °C 30 in /  1016.8 hPa SSW 5.8 mph /  9.3 km/h 5.8 mph /  9.3 km/h 57 % 0 in /  0.0 mm
20:13 77.2 °F /  25.1 °C 61.3 °F /  16.3 °C 30.1 in /  1017.8 hPa SW 5.8 mph /  9.3 km/h 5.8 mph /  9.3 km/h 58 % 0 in /  0.0 mm
20:15 71.8 °F /  22.1 °C 63.9 °F /  17.7 °C 30.1 in /  1018.8 hPa SW 1 mph /  1.6 km/h 2 mph /  3.2 km/h 76 % 0 in /  0.0 mm
20:18 77 °F /  25.0 °C 61.2 °F /  16.2 °C 30.1 in /  1017.8 hPa SW 5.8 mph /  9.3 km/h 5.8 mph /  9.3 km/h 58 % 0 in /  0.0 mm
20:23 76.8 °F /  24.9 °C 61.9 °F /  16.6 °C 30.1 in /  1017.8 hPa SW 5.8 mph /  9.3 km/h 5.8 mph /  9.3 km/h 60 % 0 in /  0.0 mm
20:25 71.8 °F /  22.1 °C 64.6 °F /  18.1 °C 30.1 in /  1018.8 hPa SW 1 mph /  1.6 km/h 2 mph /  3.2 km/h 78 % 0 in /  0.0 mm
20:28 76.6 °F /  24.8 °C 61.7 °F /  16.5 °C 30.1 in /  1017.8 hPa WSW 5.8 mph /  9.3 km/h 5.8 mph /  9.3 km/h 60 % 0 in /  0.0 mm
20:33 76.3 °F /  24.6 °C 61.9 °F /  16.6 °C 30.1 in /  1017.8 hPa SW 4.6 mph /  7.4 km/h 4.6 mph /  7.4 km/h 61 % 0 in /  0.0 mm
20:35 71.8 °F /  22.1 °C 64.6 °F /  18.1 °C 30.1 in /  1019.9 hPa SW 1 mph /  1.6 km/h 2 mph /  3.2 km/h 78 % 0 in /  0.0 mm
20:38 76.3 °F /  24.6 °C 61.9 °F /  16.6 °C 30.1 in /  1017.8 hPa SW 3.5 mph /  5.6 km/h 3.5 mph /  5.6 km/h 61 % 0 in /  0.0 mm
20:43 76.1 °F /  24.5 °C 61.7 °F /  16.5 °C 30.1 in /  1017.8 hPa South 4.6 mph /  7.4 km/h 4.6 mph /  7.4 km/h 61 % 0 in /  0.0 mm
20:45 71.6 °F /  22.0 °C 64.4 °F /  18.0 °C 30.1 in /  1019.9 hPa SW 1 mph /  1.6 km/h 2 mph /  3.2 km/h 78 % 0 in /  0.0 mm
20:48 75.9 °F /  24.4 °C 61.5 °F /  16.4 °C 30.1 in /  1017.8 hPa South 4.6 mph /  7.4 km/h 4.6 mph /  7.4 km/h 61 % 0 in /  0.0 mm
20:53 75.7 °F /  24.3 °C 61.3 °F /  16.3 °C 30.1 in /  1017.8 hPa SW 3.8 mph /  6.1 km/h 3.8 mph /  6.1 km/h 61 % 0 in /  0.0 mm
20:55 71.4 °F /  21.9 °C 64.6 °F /  18.1 °C 30.1 in /  1019.9 hPa SW 1 mph /  1.6 km/h 2 mph /  3.2 km/h 79 % 0 in /  0.0 mm
20:58 75.6 °F /  24.2 °C 61.5 °F /  16.4 °C 30.1 in /  1017.8 hPa WSW 3.5 mph /  5.6 km/h 3.5 mph /  5.6 km/h 62 % 0 in /  0.0 mm
21:03 75.4 °F /  24.1 °C 61.9 °F /  16.6 °C 30.1 in /  1017.8 hPa SW 3.6 mph /  5.8 km/h 3.6 mph /  5.8 km/h 63 % 0 in /  0.0 mm
21:05 71.2 °F /  21.8 °C 64.4 °F /  18.0 °C 30.1 in /  1018.8 hPa SW 1 mph /  1.6 km/h 2 mph /  3.2 km/h 79 % 0 in /  0.0 mm
21:08 75.2 °F /  24.0 °C 61.7 °F /  16.5 °C 30.1 in /  1017.8 hPa SW 3.5 mph /  5.6 km/h 3.5 mph /  5.6 km/h 63 % 0 in /  0.0 mm
21:13 75.2 °F /  24.0 °C 62.2 °F /  16.8 °C 30.1 in /  1017.8 hPa SW 3.5 mph /  5.6 km/h 3.5 mph /  5.6 km/h 64 % 0 in /  0.0 mm
21:15 71.1 °F /  21.7 °C 64.2 °F /  17.9 °C 30.1 in /  1018.8 hPa WSW 1 mph /  1.6 km/h 2 mph /  3.2 km/h 79 % 0 in /  0.0 mm
21:18 75 °F /  23.9 °C 62.4 °F /  16.9 °C 30.1 in /  1017.8 hPa SW 2.3 mph /  3.7 km/h 2.3 mph /  3.7 km/h 65 % 0 in /  0.0 mm
21:23 74.8 °F /  23.8 °C 62.2 °F /  16.8 °C 30.1 in /  1017.8 hPa South 3.5 mph /  5.6 km/h 3.5 mph /  5.6 km/h 65 % 0 in /  0.0 mm
21:25 71.1 °F /  21.7 °C 64.2 °F /  17.9 °C 30.1 in /  1018.8 hPa WSW 1 mph /  1.6 km/h 2 mph /  3.2 km/h 79 % 0 in /  0.0 mm
21:28 74.7 °F /  23.7 °C 62.4 °F /  16.9 °C 30.1 in /  1018.8 hPa SW 3.5 mph /  5.6 km/h 3.5 mph /  5.6 km/h 66 % 0 in /  0.0 mm
21:33 74.7 °F /  23.7 °C 63 °F /  17.2 °C 30.1 in /  1018.8 hPa SSW 2.4 mph /  3.9 km/h 2.4 mph /  3.9 km/h 67 % 0 in /  0.0 mm
21:35 71.2 °F /  21.8 °C 64.8 °F /  18.2 °C 30.1 in /  1018.8 hPa WSW 1 mph /  1.6 km/h 2 mph /  3.2 km/h 80 % 0 in /  0.0 mm
21:38 74.5 °F /  23.6 °C 62.8 °F /  17.1 °C 30.1 in /  1018.8 hPa SW 2.3 mph /  3.7 km/h 2.3 mph /  3.7 km/h 67 % 0 in /  0.0 mm
21:43 74.3 °F /  23.5 °C 63.1 °F /  17.3 °C 30.1 in /  1018.8 hPa SW 2.4 mph /  3.9 km/h 2.4 mph /  3.9 km/h 68 % 0 in /  0.0 mm
21:45 71.2 °F /  21.8 °C 64.8 °F /  18.2 °C 30.1 in /  1018.8 hPa West 1 mph /  1.6 km/h 2 mph /  3.2 km/h 80 % 0 in /  0.0 mm
21:48 74.3 °F /  23.5 °C 63.1 °F /  17.3 °C 30.1 in /  1018.8 hPa SW 2.3 mph /  3.7 km/h 2.3 mph /  3.7 km/h 68 % 0 in /  0.0 mm
21:53 74.1 °F /  23.4 °C 63 °F /  17.2 °C 30.1 in /  1018.8 hPa SW 2.3 mph /  3.7 km/h 2.3 mph /  3.7 km/h 68 % 0 in /  0.0 mm
21:55 71.2 °F /  21.8 °C 65.1 °F /  18.4 °C 30.1 in /  1018.8 hPa West 1 mph /  1.6 km/h 3 mph /  4.8 km/h 81 % 0 in /  0.0 mm
21:58 74.1 °F /  23.4 °C 63.3 °F /  17.4 °C 30.1 in /  1018.8 hPa SW 2.3 mph /  3.7 km/h 2.3 mph /  3.7 km/h 69 % 0 in /  0.0 mm
22:03 73.9 °F /  23.3 °C 63.1 °F /  17.3 °C 30.1 in /  1018.8 hPa SW 2.3 mph /  3.7 km/h 2.3 mph /  3.7 km/h 69 % 0 in /  0.0 mm
22:05 71.2 °F /  21.8 °C 65.1 °F /  18.4 °C 30.1 in /  1018.8 hPa Calm   2 mph /  3.2 km/h 81 % 0 in /  0.0 mm
22:08 73.8 °F /  23.2 °C 63.3 °F /  17.4 °C 30.1 in /  1018.8 hPa SW 2.2 mph /  3.5 km/h   70 % 0 in /  0.0 mm
22:13 73.8 °F /  23.2 °C 63.3 °F /  17.4 °C 30.1 in /  1018.8 hPa SSW 2.3 mph /  3.7 km/h 2.3 mph /  3.7 km/h 70 % 0 in /  0.0 mm
22:15 71.1 °F /  21.7 °C 65.3 °F /  18.5 °C 30.1 in /  1018.8 hPa Calm   2 mph /  3.2 km/h 82 % 0 in /  0.0 mm
22:18 73.6 °F /  23.1 °C 63.1 °F /  17.3 °C 30.1 in /  1018.8 hPa SW 2.9 mph /  4.7 km/h 2.9 mph /  4.7 km/h 70 % 0 in /  0.0 mm
22:23 73.6 °F /  23.1 °C 63.7 °F /  17.6 °C 30.1 in /  1018.8 hPa SW 1.4 mph /  2.3 km/h   71 % 0 in /  0.0 mm
22:25 70.9 °F /  21.6 °C 65.1 °F /  18.4 °C 30.1 in /  1018.8 hPa Calm     82 % 0 in /  0.0 mm
22:28 73.4 °F /  23.0 °C 63.3 °F /  17.4 °C 30.1 in /  1018.8 hPa SW 2.3 mph /  3.7 km/h 2.3 mph /  3.7 km/h 71 % 0 in /  0.0 mm
22:29 73.4 °F /  23.0 °C 63.3 °F /  17.4 °C 30.1 in /  1018.8 hPa SW 1.2 mph /  1.9 km/h 1.2 mph /  1.9 km/h 71 % 0 in /  0.0 mm
22:34 73.4 °F /  23.0 °C 63.9 °F /  17.7 °C 30.1 in /  1018.8 hPa SW 2.3 mph /  3.7 km/h 2.3 mph /  3.7 km/h 72 % 0 in /  0.0 mm
22:35 70.5 °F /  21.4 °C 64.8 °F /  18.2 °C 30.1 in /  1018.8 hPa Calm     82 % 0 in /  0.0 mm
22:39 73.2 °F /  22.9 °C 63.7 °F /  17.6 °C 30.1 in /  1018.8 hPa WSW 2.3 mph /  3.7 km/h 2.3 mph /  3.7 km/h 72 % 0 in /  0.0 mm
22:44 73.2 °F /  22.9 °C 64 °F /  17.8 °C 30.1 in /  1018.8 hPa SW 2.3 mph /  3.7 km/h 2.3 mph /  3.7 km/h 73 % 0 in /  0.0 mm
22:45 70.3 °F /  21.3 °C 64.9 °F /  18.3 °C 30.1 in /  1018.8 hPa Calm     83 % 0 in /  0.0 mm
22:49 73 °F /  22.8 °C 63.9 °F /  17.7 °C 30.1 in /  1018.8 hPa Calm     73 % 0 in /  0.0 mm
22:54 73 °F /  22.8 °C 63.9 °F /  17.7 °C 30.1 in /  1018.8 hPa Calm     73 % 0 in /  0.0 mm
22:55 69.8 °F /  21.0 °C 64.4 °F /  18.0 °C 30.1 in /  1018.8 hPa Calm   1 mph /  1.6 km/h 83 % 0 in /  0.0 mm
22:59 73 °F /  22.8 °C 63.9 °F /  17.7 °C 30.1 in /  1018.8 hPa WSW 1.2 mph /  1.9 km/h 1.4 mph /  2.3 km/h 73 % 0 in /  0.0 mm
23:04 73.2 °F /  22.9 °C 64.4 °F /  18.0 °C 30.1 in /  1018.8 hPa WSW 1.2 mph /  1.9 km/h 1.2 mph /  1.9 km/h 74 % 0 in /  0.0 mm
23:05 69.6 °F /  20.9 °C 64.2 °F /  17.9 °C 30.1 in /  1018.8 hPa Calm   1 mph /  1.6 km/h 83 % 0 in /  0.0 mm
23:09 73 °F /  22.8 °C 64.2 °F /  17.9 °C 30.1 in /  1018.8 hPa WSW 1.4 mph /  2.3 km/h 1.4 mph /  2.3 km/h 74 % 0 in /  0.0 mm
23:14 73 °F /  22.8 °C 64.2 °F /  17.9 °C 30.1 in /  1018.8 hPa Calm     74 % 0 in /  0.0 mm
23:15 69.3 °F /  20.7 °C 63.5 °F /  17.5 °C 30.1 in /  1018.8 hPa South 2 mph /  3.2 km/h 2 mph /  3.2 km/h 82 % 0 in /  0.0 mm
23:19 73 °F /  22.8 °C 64.6 °F /  18.1 °C 30.1 in /  1018.8 hPa Calm     75 % 0 in /  0.0 mm
23:24 72.9 °F /  22.7 °C 64.6 °F /  18.1 °C 30.1 in /  1018.8 hPa Calm     75 % 0 in /  0.0 mm
23:25 69.1 °F /  20.6 °C 63.7 °F /  17.6 °C 30.1 in /  1018.8 hPa Calm   3 mph /  4.8 km/h 83 % 0 in /  0.0 mm
23:29 72.9 °F /  22.7 °C 64.6 °F /  18.1 °C 30.1 in /  1018.8 hPa SW 1.2 mph /  1.9 km/h   75 % 0 in /  0.0 mm
23:34 72.7 °F /  22.6 °C 64.2 °F /  17.9 °C 30.1 in /  1018.8 hPa Calm     75 % 0 in /  0.0 mm
23:35 69.4 °F /  20.8 °C 64.4 °F /  18.0 °C 30.1 in /  1018.8 hPa Calm   1 mph /  1.6 km/h 84 % 0 in /  0.0 mm
23:39 72.5 °F /  22.5 °C 64 °F /  17.8 °C 30.1 in /  1018.8 hPa SW 1.4 mph /  2.3 km/h 1.4 mph /  2.3 km/h 75 % 0 in /  0.0 mm
23:44 72.5 °F /  22.5 °C 64 °F /  17.8 °C 30.1 in /  1018.8 hPa WSW 1.2 mph /  1.9 km/h   75 % 0 in /  0.0 mm
23:45 69.3 °F /  20.7 °C 64.6 °F /  18.1 °C 30.1 in /  1018.8 hPa Calm     85 % 0 in /  0.0 mm
23:49 72.5 °F /  22.5 °C 64.6 °F /  18.1 °C 30.1 in /  1018.8 hPa Calm     76 % 0 in /  0.0 mm
23:54 72.3 °F /  22.4 °C 64.2 °F /  17.9 °C 30.1 in /  1018.8 hPa SW 1.2 mph /  1.9 km/h 1.2 mph /  1.9 km/h 76 % 0 in /  0.0 mm
23:55 69.3 °F /  20.7 °C 64.6 °F /  18.1 °C 30.1 in /  1018.8 hPa SSE 2 mph /  3.2 km/h 4 mph /  6.4 km/h 85 % 0 in /  0.0 mm
23:59 72.3 °F /  22.4 °C 64.2 °F /  17.9 °C 30.1 in /  1018.8 hPa Calm     76 % 0 in /  0.0 mm
Meteo Sesrovires
Elogis d' Weather Underground - 4.25 mb

Guio original per  Jim McMurry - jmcmurry@mwt.net Adaptat per a la plantilla per  Wim van der Kuil - Leuven-Template.eu

Trobareu la nostra informacio del temps tambe a:

Weather Underground

AWEKAS